createdAt,value
2017-06-10T00:03:22.378Z,3.50
2017-06-10T00:05:55.141Z,6.10
2017-06-10T00:08:28.322Z,4.12
2017-06-10T00:11:01.201Z,4.55
2017-06-10T00:13:34.261Z,3.55
2017-06-10T00:16:08.510Z,4.30
2017-06-10T00:18:40.990Z,4.20
2017-06-10T00:21:13.406Z,4.25
2017-06-10T00:23:48.339Z,3.70
2017-06-10T00:26:22.014Z,2.62
2017-06-10T00:28:54.631Z,5.07
2017-06-10T00:31:28.142Z,3.80
2017-06-10T00:34:01.736Z,4.27
2017-06-10T00:36:34.768Z,5.10
2017-06-10T00:39:08.194Z,3.80
2017-06-10T00:41:41.138Z,3.00
2017-06-10T00:44:14.219Z,2.72
2017-06-10T00:46:47.147Z,3.60
2017-06-10T00:49:20.167Z,5.32
2017-06-10T00:51:53.081Z,3.40
2017-06-10T00:54:26.338Z,4.17
2017-06-10T00:57:00.281Z,2.45
2017-06-10T00:59:33.109Z,5.25
2017-06-10T01:02:05.983Z,2.62
2017-06-10T01:04:39.382Z,2.90
2017-06-10T01:07:12.306Z,2.80
2017-06-10T01:09:46.526Z,2.60
2017-06-10T01:12:20.747Z,4.18
2017-06-10T01:14:53.929Z,2.00
2017-06-10T01:17:26.852Z,3.97
2017-06-10T01:20:00.794Z,2.30
2017-06-10T01:22:33.414Z,2.78
2017-06-10T01:25:06.615Z,5.62
2017-06-10T01:27:39.751Z,3.65
2017-06-10T01:30:13.094Z,6.50
2017-06-10T01:32:47.093Z,2.55
2017-06-10T01:35:21.066Z,3.10
2017-06-10T01:37:54.103Z,2.90
2017-06-10T01:40:27.601Z,3.00
2017-06-10T01:43:00.892Z,1.67
2017-06-10T01:45:35.009Z,3.45
2017-06-10T01:48:08.508Z,2.15
2017-06-10T01:50:41.678Z,2.95
2017-06-10T01:53:14.006Z,2.97
2017-06-10T01:55:46.493Z,2.15
2017-06-10T01:58:19.314Z,3.10
2017-06-10T02:00:53.339Z,2.03
2017-06-10T02:03:25.982Z,2.75
2017-06-10T02:05:59.114Z,2.40
2017-06-10T02:08:32.222Z,2.43
2017-06-10T02:11:05.847Z,2.80
2017-06-10T02:13:39.345Z,2.30
2017-06-10T02:16:12.897Z,2.90
2017-06-10T02:18:45.821Z,2.65
2017-06-10T02:21:19.366Z,2.85
2017-06-10T02:23:52.833Z,3.33
2017-06-10T02:26:25.973Z,4.50
2017-06-10T02:28:59.195Z,3.50
2017-06-10T02:31:32.334Z,2.50
2017-06-10T02:34:05.962Z,3.87
2017-06-10T02:36:40.401Z,2.60
2017-06-10T02:39:13.322Z,3.20
2017-06-10T02:41:46.319Z,3.35
2017-06-10T02:44:19.270Z,3.00
2017-06-10T02:46:52.083Z,3.42
2017-06-10T02:49:24.882Z,3.50
2017-06-10T02:51:58.359Z,2.92
2017-06-10T02:54:31.522Z,3.20
2017-06-10T02:57:05.190Z,2.85
2017-06-10T02:59:38.095Z,2.85
2017-06-10T03:02:11.006Z,3.95
2017-06-10T03:04:43.589Z,4.00
2017-06-10T03:07:16.470Z,5.35
2017-06-10T03:09:49.934Z,5.65
2017-06-10T03:12:22.898Z,5.20
2017-06-10T03:14:55.822Z,5.75
2017-06-10T03:17:29.005Z,7.10
2017-06-10T03:20:02.794Z,8.32
2017-06-10T03:22:36.153Z,6.50
2017-06-10T03:25:10.359Z,6.18
2017-06-10T03:27:43.621Z,5.75
2017-06-10T03:30:16.661Z,7.40
2017-06-10T03:33:09.645Z,10.80
2017-06-10T03:35:42.249Z,6.00
2017-06-10T03:38:14.639Z,6.53
2017-06-10T03:40:46.972Z,5.10
2017-06-10T03:43:19.750Z,7.53
2017-06-10T03:45:52.373Z,4.50
2017-06-10T03:48:25.002Z,6.35
2017-06-10T03:50:58.645Z,4.50
2017-06-10T03:53:31.577Z,5.97
2017-06-10T03:56:04.249Z,5.53
2017-06-10T03:58:37.354Z,5.80
2017-06-10T04:01:11.814Z,5.57
2017-06-10T04:03:44.866Z,5.07
2017-06-10T04:06:18.274Z,6.35
2017-06-10T04:08:50.685Z,4.78
2017-06-10T04:11:23.404Z,5.00
2017-06-10T04:13:56.894Z,5.20
2017-06-10T04:16:29.901Z,7.22
2017-06-10T04:19:03.022Z,5.65
2017-06-10T04:21:36.130Z,4.78
2017-06-10T04:24:09.383Z,4.43
2017-06-10T04:26:43.346Z,6.43
2017-06-10T04:29:16.354Z,5.57
2017-06-10T04:31:49.630Z,3.90
2017-06-10T04:34:22.050Z,3.20
2017-06-10T04:36:54.558Z,7.25
2017-06-10T04:39:28.727Z,4.87
2017-06-10T04:42:01.645Z,6.50
2017-06-10T04:44:34.161Z,6.20
2017-06-10T04:47:06.549Z,3.80
2017-06-10T04:49:39.839Z,4.23
2017-06-10T04:52:12.170Z,5.12
2017-06-10T04:54:44.946Z,4.57
2017-06-10T04:57:18.095Z,3.37
2017-06-10T04:59:50.806Z,4.95
2017-06-10T05:02:24.029Z,5.72
2017-06-10T05:04:56.986Z,4.62
2017-06-10T05:07:29.955Z,5.70
2017-06-10T05:10:03.914Z,4.30
2017-06-10T05:12:36.597Z,5.40
2017-06-10T05:15:09.160Z,6.13
2017-06-10T05:17:41.548Z,6.15
2017-06-10T05:20:14.033Z,4.65
2017-06-10T05:22:46.394Z,6.22
2017-06-10T05:25:19.356Z,4.30
2017-06-10T05:27:52.426Z,4.78
2017-06-10T05:30:24.818Z,6.60
2017-06-10T05:32:57.224Z,4.62
2017-06-10T05:35:29.705Z,4.93
2017-06-10T05:38:02.131Z,4.15
2017-06-10T05:40:34.809Z,4.50
2017-06-10T05:43:07.153Z,5.37
2017-06-10T05:45:40.729Z,4.37
2017-06-10T05:48:14.732Z,5.10
2017-06-10T05:50:47.190Z,4.30
2017-06-10T05:53:20.478Z,3.50
2017-06-10T05:55:53.550Z,3.60
2017-06-10T05:58:26.270Z,4.75
2017-06-10T06:00:58.687Z,3.28
2017-06-10T06:03:31.055Z,2.80
2017-06-10T06:06:03.837Z,2.92
2017-06-10T06:08:36.798Z,2.17
2017-06-10T06:11:09.393Z,1.95
2017-06-10T06:13:41.724Z,3.22
2017-06-10T06:16:17.564Z,1.80
2017-06-10T06:18:50.594Z,2.03
2017-06-10T06:21:23.110Z,3.90
2017-06-10T06:23:55.975Z,2.72
2017-06-10T06:26:28.582Z,2.50
2017-06-10T06:29:01.158Z,2.00
2017-06-10T06:31:34.011Z,2.97
2017-06-10T06:34:07.250Z,2.97
2017-06-10T06:36:40.035Z,1.90
2017-06-10T06:39:12.433Z,3.90
2017-06-10T06:41:46.493Z,2.58
2017-06-10T06:44:20.142Z,4.10
2017-06-10T06:46:53.916Z,4.72
2017-06-10T06:49:28.104Z,2.10
2017-06-10T06:52:03.350Z,2.50
2017-06-10T06:54:36.126Z,2.80
2017-06-10T06:57:09.186Z,3.90
2017-06-10T06:59:41.654Z,2.87
2017-06-10T07:02:16.935Z,3.30
2017-06-10T07:04:51.229Z,3.20
2017-06-10T07:07:25.274Z,2.40
2017-06-10T07:09:58.897Z,5.90
2017-06-10T07:12:32.242Z,2.40
2017-06-10T07:15:05.334Z,2.62
2017-06-10T07:17:38.086Z,4.30
2017-06-10T07:20:10.506Z,3.17
2017-06-10T07:22:43.093Z,2.90
2017-06-10T07:25:15.498Z,4.00
2017-06-10T07:27:49.278Z,3.00
2017-06-10T07:30:21.765Z,1.98
2017-06-10T07:32:54.414Z,1.65
2017-06-10T07:35:27.101Z,6.95
2017-06-10T07:37:59.782Z,1.90
2017-06-10T07:40:32.420Z,1.42
2017-06-10T07:43:05.278Z,2.22
2017-06-10T07:45:37.869Z,2.50
2017-06-10T07:48:10.723Z,2.97
2017-06-10T07:50:44.443Z,1.60
2017-06-10T07:53:17.262Z,2.50
2017-06-10T07:55:51.138Z,1.90
2017-06-10T07:58:23.810Z,3.17
2017-06-10T08:00:56.312Z,3.40
2017-06-10T08:03:29.013Z,3.12
2017-06-10T08:06:01.721Z,3.17
2017-06-10T08:08:34.487Z,2.13
2017-06-10T08:11:06.841Z,1.83
2017-06-10T08:13:39.569Z,2.00
2017-06-10T08:16:12.528Z,2.45
2017-06-10T08:18:45.706Z,1.90
2017-06-10T08:21:18.672Z,2.80
2017-06-10T08:23:51.208Z,1.40
2017-06-10T08:26:26.070Z,1.90
2017-06-10T08:28:59.910Z,2.22
2017-06-10T08:31:32.274Z,1.70
2017-06-10T08:34:05.236Z,2.78
2017-06-10T08:36:37.612Z,2.17
2017-06-10T08:39:10.374Z,2.15
2017-06-10T08:41:43.481Z,2.17
2017-06-10T08:44:16.674Z,1.50
2017-06-10T08:46:49.185Z,1.83
2017-06-10T08:49:22.274Z,3.70
2017-06-10T08:51:55.068Z,2.12
2017-06-10T08:54:27.477Z,3.22
2017-06-10T08:57:00.610Z,2.40
2017-06-10T08:59:33.593Z,4.10
2017-06-10T09:02:06.071Z,4.00
2017-06-10T09:04:39.045Z,2.70
2017-06-10T09:07:11.934Z,2.75
2017-06-10T09:09:44.561Z,1.60
2017-06-10T09:27:42.657Z,2.42
2017-06-10T09:30:15.038Z,1.80
2017-06-10T09:32:47.477Z,3.60
2017-06-10T09:35:19.843Z,2.25
2017-06-10T09:37:52.286Z,2.50
2017-06-10T09:40:25.371Z,2.70
2017-06-10T09:42:58.049Z,2.10
2017-06-10T09:45:31.088Z,1.70
2017-06-10T09:48:05.712Z,2.17
2017-06-10T09:50:38.755Z,3.00
2017-06-10T09:53:11.879Z,2.62
2017-06-10T09:55:45.063Z,2.10
2017-06-10T09:58:17.870Z,2.72
2017-06-10T10:00:50.583Z,2.10
2017-06-10T10:03:23.091Z,2.08
2017-06-10T10:05:57.058Z,1.90
2017-06-10T10:08:30.630Z,2.87
2017-06-10T10:11:03.237Z,2.33
2017-06-10T10:13:36.292Z,3.40
2017-06-10T10:16:10.273Z,2.53
2017-06-10T10:18:42.957Z,3.53
2017-06-10T10:21:15.509Z,2.40
2017-06-10T10:23:48.446Z,3.37
2017-06-10T10:26:21.013Z,3.20
2017-06-10T10:28:53.474Z,2.62
2017-06-10T10:31:26.048Z,2.40
2017-06-10T10:33:59.428Z,2.72
2017-06-10T10:36:31.976Z,4.32
2017-06-10T10:39:05.024Z,3.80
2017-06-10T10:41:37.424Z,6.82
2017-06-10T10:44:09.876Z,4.20
2017-06-10T10:46:43.531Z,4.80
2017-06-10T10:49:16.593Z,4.40
2017-06-10T10:51:49.874Z,3.90
2017-06-10T10:54:22.840Z,2.07
2017-06-10T10:56:55.823Z,3.28
2017-06-10T10:59:28.419Z,2.00
2017-06-10T11:02:01.479Z,2.33
2017-06-10T11:04:34.872Z,2.90
2017-06-10T11:07:07.235Z,2.85
2017-06-10T11:09:39.980Z,4.43
2017-06-10T11:12:12.332Z,2.28
2017-06-10T11:14:44.815Z,2.45
2017-06-10T11:17:17.242Z,4.13
2017-06-10T11:19:49.825Z,3.50
2017-06-10T11:22:22.619Z,3.22
2017-06-10T11:24:55.987Z,2.25
2017-06-10T11:27:28.665Z,3.12
2017-06-10T11:30:01.804Z,4.57
2017-06-10T11:32:34.285Z,2.20
2017-06-10T11:35:07.271Z,3.37
2017-06-10T11:37:39.997Z,2.58
2017-06-10T11:40:13.413Z,4.97
2017-06-10T11:42:45.931Z,3.30
2017-06-10T11:45:19.121Z,2.50
2017-06-10T11:47:51.721Z,2.97
2017-06-10T11:50:24.217Z,2.80
2017-06-10T11:52:57.133Z,2.70
2017-06-10T11:55:29.497Z,2.80
2017-06-10T11:58:02.028Z,2.60
2017-06-10T12:00:34.597Z,2.70
2017-06-10T12:03:07.427Z,4.03
2017-06-10T12:05:39.914Z,1.60
2017-06-10T12:08:12.328Z,3.70
2017-06-10T12:10:45.203Z,3.00
2017-06-10T12:13:18.183Z,4.07
2017-06-10T12:15:51.239Z,2.60
2017-06-10T12:18:23.599Z,3.42
2017-06-10T12:20:56.125Z,4.07
2017-06-10T12:23:28.796Z,2.97
2017-06-10T12:26:01.517Z,3.25
2017-06-10T12:28:34.055Z,3.47
2017-06-10T12:31:07.054Z,3.40
2017-06-10T12:33:40.517Z,2.50
2017-06-10T12:36:13.181Z,5.97
2017-06-10T12:38:45.649Z,3.10
2017-06-10T12:41:18.080Z,3.80
2017-06-10T12:43:50.842Z,3.07
2017-06-10T12:46:23.514Z,3.80
2017-06-10T12:48:55.982Z,3.53
2017-06-10T12:51:28.354Z,3.30
2017-06-10T12:54:01.513Z,2.70
2017-06-10T12:56:34.053Z,2.30
2017-06-10T12:59:06.943Z,3.20
2017-06-10T13:01:39.458Z,3.08
2017-06-10T13:05:40.488Z,3.08
2017-06-10T13:08:12.977Z,4.20
2017-06-10T13:10:46.255Z,2.40
2017-06-10T13:13:18.659Z,2.83
2017-06-10T13:15:51.062Z,2.90
2017-06-10T13:18:23.387Z,2.80
2017-06-10T13:20:55.812Z,2.10
2017-06-10T13:23:28.948Z,3.30
2017-06-10T13:26:01.632Z,4.32
2017-06-10T13:28:34.126Z,6.95
2017-06-10T13:31:06.702Z,3.60
2017-06-10T13:33:39.354Z,3.00
2017-06-10T13:36:11.674Z,3.72
2017-06-10T13:38:46.202Z,6.50
2017-06-10T13:41:19.011Z,4.53
2017-06-10T13:43:51.468Z,3.28
2017-06-10T13:46:23.771Z,3.58
2017-06-10T13:48:56.734Z,2.62
2017-06-10T13:54:10.515Z,3.90
2017-06-10T13:56:44.201Z,7.00
2017-06-10T13:59:17.150Z,5.37
2017-06-10T14:01:49.895Z,4.32
2017-06-10T14:04:22.773Z,3.92
2017-06-10T14:06:55.044Z,4.47
2017-06-10T14:09:27.900Z,2.78
2017-06-10T14:12:00.374Z,4.07
2017-06-10T14:14:33.455Z,3.53
2017-06-10T14:17:05.985Z,3.40
2017-06-10T14:19:38.791Z,2.80
2017-06-10T14:22:11.232Z,4.75
2017-06-10T14:24:43.663Z,4.20
2017-06-10T14:27:16.807Z,3.58
2017-06-10T14:29:50.144Z,6.20
2017-06-10T14:32:22.754Z,3.80
2017-06-10T14:34:55.425Z,2.78
2017-06-10T14:37:27.920Z,4.40
2017-06-10T14:40:01.757Z,4.47
2017-06-10T14:42:34.070Z,4.43
2017-06-10T14:45:06.998Z,5.78
2017-06-10T14:47:39.779Z,4.70
2017-06-10T14:50:12.533Z,3.60
2017-06-10T14:52:44.989Z,3.75
2017-06-10T14:55:19.773Z,5.18
2017-06-10T14:57:52.108Z,4.28
2017-06-10T15:00:24.959Z,3.50
2017-06-10T15:02:57.682Z,4.00
2017-06-10T15:05:30.086Z,2.70
2017-06-10T15:08:02.518Z,2.40
2017-06-10T15:10:37.037Z,2.83
2017-06-10T15:13:10.513Z,5.12
2017-06-10T15:15:43.187Z,3.80
2017-06-10T15:18:15.642Z,4.00
2017-06-10T15:20:48.823Z,3.67
2017-06-10T15:23:21.355Z,4.80
2017-06-10T15:25:54.488Z,6.80
2017-06-10T15:28:27.296Z,3.67
2017-06-10T15:31:00.048Z,5.18
2017-06-10T15:33:33.163Z,5.72
2017-06-10T15:36:06.436Z,5.40
2017-06-10T15:38:39.128Z,6.30
2017-06-10T15:41:11.936Z,4.57
2017-06-10T15:43:45.031Z,5.15
2017-06-10T15:46:17.441Z,4.40
2017-06-10T15:48:50.359Z,4.25
2017-06-10T15:51:23.064Z,4.68
2017-06-10T15:53:55.500Z,3.50
2017-06-10T15:56:28.206Z,5.70
2017-06-10T15:59:01.202Z,3.60
2017-06-10T16:01:34.194Z,5.75
2017-06-10T16:04:06.968Z,2.50
2017-06-10T16:06:39.591Z,3.22
2017-06-10T16:09:12.469Z,3.58
2017-06-10T16:11:45.304Z,2.70
2017-06-10T16:14:18.391Z,4.50
2017-06-10T16:16:50.883Z,4.95
2017-06-10T16:19:24.238Z,3.20
2017-06-10T16:21:57.092Z,4.45
2017-06-10T16:24:29.507Z,5.10
2017-06-10T16:27:01.987Z,3.78
2017-06-10T16:29:34.499Z,5.97
2017-06-10T16:32:07.347Z,5.00
2017-06-10T16:34:39.857Z,4.55
2017-06-10T16:37:13.615Z,4.53
2017-06-10T16:39:47.670Z,4.28
2017-06-10T16:42:20.181Z,3.95
2017-06-10T16:44:53.375Z,4.30
2017-06-10T16:47:26.303Z,6.57
2017-06-10T16:49:58.887Z,4.30
2017-06-10T16:52:33.118Z,5.35
2017-06-10T16:55:05.949Z,3.28
2017-06-10T16:57:39.037Z,3.50
2017-06-10T17:00:12.087Z,5.35
2017-06-10T17:02:44.427Z,5.18
2017-06-10T17:05:16.856Z,3.40
2017-06-10T17:07:49.312Z,5.93
2017-06-10T17:10:21.935Z,3.20
2017-06-10T17:12:55.416Z,2.70
2017-06-10T17:15:28.730Z,3.80
2017-06-10T17:18:01.128Z,4.20
2017-06-10T17:20:33.681Z,3.62
2017-06-10T17:23:06.295Z,3.35
2017-06-10T17:25:38.770Z,5.30
2017-06-10T17:28:11.632Z,5.32
2017-06-10T17:30:43.894Z,4.00
2017-06-10T17:33:16.948Z,3.25
2017-06-10T17:35:50.172Z,6.80
2017-06-10T17:38:22.683Z,4.65
2017-06-10T17:40:57.292Z,3.70
2017-06-10T17:43:29.709Z,6.50
2017-06-10T17:46:02.947Z,3.72
2017-06-10T17:48:35.658Z,5.37
2017-06-10T17:51:08.827Z,4.45
2017-06-10T17:53:41.668Z,3.60
2017-06-10T17:56:14.544Z,4.55
2017-06-10T17:58:47.754Z,5.30
2017-06-10T18:01:20.685Z,4.07
2017-06-10T18:03:53.834Z,3.25
2017-06-10T18:06:26.382Z,5.05
2017-06-10T18:08:59.171Z,6.68
2017-06-10T18:11:31.576Z,3.53
2017-06-10T18:14:04.268Z,2.70
2017-06-10T18:16:37.083Z,6.72
2017-06-10T18:19:09.879Z,2.53
2017-06-10T18:21:42.491Z,2.92
2017-06-10T18:24:19.009Z,4.45
2017-06-10T18:26:55.343Z,4.30
2017-06-10T18:29:32.012Z,4.57
2017-06-10T18:32:08.635Z,6.30
2017-06-10T18:34:41.398Z,4.55
2017-06-10T18:37:14.319Z,2.90
2017-06-10T18:39:47.505Z,3.53
2017-06-10T18:42:20.408Z,7.82
2017-06-10T18:44:52.874Z,6.12
2017-06-10T18:47:25.437Z,2.97
2017-06-10T18:49:58.165Z,3.10
2017-06-10T18:52:30.553Z,6.35
2017-06-10T18:55:03.581Z,5.85
2017-06-10T18:57:35.912Z,4.50
2017-06-10T19:00:08.453Z,5.65
2017-06-10T19:02:43.653Z,5.00
2017-06-10T19:05:16.047Z,4.40
2017-06-10T19:07:50.879Z,6.45
2017-06-10T19:10:23.282Z,4.95
2017-06-10T19:12:56.158Z,4.20
2017-06-10T19:15:28.587Z,2.90
2017-06-10T19:18:01.063Z,6.47
2017-06-10T19:20:34.047Z,8.70
2017-06-10T19:23:06.393Z,4.43
2017-06-10T19:25:39.248Z,3.72
2017-06-10T19:28:11.805Z,6.30
2017-06-10T19:30:44.829Z,5.55
2017-06-10T19:33:18.261Z,5.90
2017-06-10T19:35:50.589Z,4.65
2017-06-10T19:38:23.295Z,5.87
2017-06-10T19:40:55.909Z,5.93
2017-06-10T19:43:29.311Z,3.90
2017-06-10T19:46:02.732Z,4.00
2017-06-10T19:48:35.732Z,5.20
2017-06-10T19:51:09.423Z,6.95
2017-06-10T19:53:42.369Z,3.78
2017-06-10T19:56:16.168Z,4.43
2017-06-10T19:58:49.384Z,3.90
2017-06-10T20:01:22.151Z,5.10
2017-06-10T20:03:54.577Z,5.47
2017-06-10T20:06:26.869Z,5.07
2017-06-10T20:08:59.500Z,5.43
2017-06-10T20:11:32.099Z,5.77
2017-06-10T20:14:05.000Z,5.30
2017-06-10T20:16:38.700Z,5.10
2017-06-10T20:19:11.111Z,6.20
2017-06-10T20:21:44.019Z,5.70
2017-06-10T20:24:17.156Z,6.95
2017-06-10T20:26:50.419Z,8.32
2017-06-10T20:29:22.775Z,13.27
2017-06-10T20:31:55.355Z,8.25
2017-06-10T20:34:27.958Z,6.78
2017-06-10T20:37:00.228Z,6.85
2017-06-10T20:39:33.494Z,8.82
2017-06-10T20:42:06.589Z,6.55
2017-06-10T20:44:39.426Z,11.07
2017-06-10T20:47:11.858Z,9.45
2017-06-10T20:49:44.147Z,7.60
2017-06-10T20:52:17.087Z,9.25
2017-06-10T20:54:50.175Z,9.35
2017-06-10T20:57:23.419Z,6.68
2017-06-10T20:59:57.333Z,8.80
2017-06-10T21:02:30.410Z,11.80
2017-06-10T21:05:03.149Z,7.35
2017-06-10T21:07:35.470Z,8.05
2017-06-10T21:10:07.841Z,6.43
2017-06-10T21:12:40.240Z,7.20
2017-06-10T21:15:13.387Z,11.52
2017-06-10T21:17:45.671Z,10.55
2017-06-10T21:20:19.607Z,12.93
2017-06-10T21:22:52.820Z,7.00
2017-06-10T21:25:25.702Z,7.12
2017-06-10T21:27:58.975Z,8.75
2017-06-10T21:30:32.020Z,6.60
2017-06-10T21:33:05.058Z,8.57
2017-06-10T21:35:38.442Z,6.90
2017-06-10T21:38:11.730Z,8.70
2017-06-10T21:40:44.871Z,5.87
2017-06-10T21:43:17.750Z,9.73
2017-06-10T21:45:51.111Z,8.20
2017-06-10T21:48:23.734Z,6.57
2017-06-10T21:50:56.408Z,6.43
2017-06-10T21:53:29.190Z,7.75
2017-06-10T21:56:01.941Z,7.57
2017-06-10T21:58:34.350Z,5.23
2017-06-10T22:01:06.592Z,8.30
2017-06-10T22:03:39.377Z,6.45
2017-06-10T22:06:12.118Z,4.65
2017-06-10T22:08:45.019Z,7.25
2017-06-10T22:11:17.971Z,8.23
2017-06-10T22:13:50.343Z,7.60
2017-06-10T22:16:23.578Z,10.57
2017-06-10T22:18:57.351Z,7.10
2017-06-10T22:21:30.063Z,7.65
2017-06-10T22:24:03.236Z,9.45
2017-06-10T22:26:35.988Z,10.05
2017-06-10T22:29:08.871Z,8.70
2017-06-10T22:31:41.821Z,8.98
2017-06-10T22:34:14.573Z,6.23
2017-06-10T22:36:47.450Z,5.82
2017-06-10T22:39:20.889Z,6.82
2017-06-10T22:41:54.638Z,7.40
2017-06-10T22:44:28.660Z,5.10
2017-06-10T22:47:02.987Z,8.98
2017-06-10T22:49:37.098Z,4.28
2017-06-10T22:52:10.518Z,6.37
2017-06-10T22:54:43.713Z,5.37
2017-06-10T22:57:19.875Z,5.20
2017-06-10T22:59:53.919Z,5.65
2017-06-10T23:02:28.285Z,5.65
2017-06-10T23:05:02.093Z,5.35
2017-06-10T23:07:36.253Z,8.27
2017-06-10T23:10:11.312Z,6.00
2017-06-10T23:12:44.814Z,8.50
2017-06-10T23:15:18.205Z,13.98
2017-06-10T23:17:51.385Z,13.75
2017-06-10T23:20:25.928Z,8.57
2017-06-10T23:23:00.759Z,4.90
2017-06-10T23:25:34.188Z,4.60
2017-06-10T23:28:08.011Z,7.25
2017-06-10T23:30:43.288Z,4.32
2017-06-10T23:33:17.959Z,6.30
2017-06-10T23:35:52.395Z,7.45
2017-06-10T23:38:25.781Z,4.85
2017-06-10T23:40:59.735Z,5.60
2017-06-10T23:43:33.234Z,5.90
2017-06-10T23:46:07.081Z,5.10
2017-06-10T23:48:40.030Z,5.87
2017-06-10T23:51:13.591Z,6.55
2017-06-10T23:53:46.760Z,9.45
2017-06-10T23:56:19.559Z,6.12
2017-06-10T23:58:52.754Z,7.47
